sensor_id;sensor_type;location;lat;lon;timestamp;P1;durP1;ratioP1;P2;durP2;ratioP2
75810;SDS011;64449;50.016;19.954;2023-05-24T00:02:20;10.30;;;7.30;;
75810;SDS011;64449;50.016;19.954;2023-05-24T00:04:47;11.40;;;7.80;;
75810;SDS011;64449;50.016;19.954;2023-05-24T00:07:13;12.80;;;8.60;;
75810;SDS011;64449;50.016;19.954;2023-05-24T00:09:40;11.80;;;8.10;;
75810;SDS011;64449;50.016;19.954;2023-05-24T00:12:06;11.00;;;7.50;;
75810;SDS011;64449;50.016;19.954;2023-05-24T00:14:32;11.30;;;7.90;;
75810;SDS011;64449;50.016;19.954;2023-05-24T00:16:58;9.70;;;7.20;;
75810;SDS011;64449;50.016;19.954;2023-05-24T00:19:23;11.70;;;7.00;;
75810;SDS011;64449;50.016;19.954;2023-05-24T00:21:49;8.90;;;6.20;;
75810;SDS011;64449;50.016;19.954;2023-05-24T00:24:15;10.30;;;7.20;;
75810;SDS011;64449;50.016;19.954;2023-05-24T00:26:41;9.50;;;6.50;;
75810;SDS011;64449;50.016;19.954;2023-05-24T00:29:07;9.50;;;6.50;;
75810;SDS011;64449;50.016;19.954;2023-05-24T00:31:32;9.50;;;6.50;;
75810;SDS011;64449;50.016;19.954;2023-05-24T00:33:58;11.30;;;7.40;;
75810;SDS011;64449;50.016;19.954;2023-05-24T00:36:23;11.10;;;6.90;;
75810;SDS011;64449;50.016;19.954;2023-05-24T00:38:49;8.90;;;5.90;;
75810;SDS011;64449;50.016;19.954;2023-05-24T00:41:14;9.30;;;6.70;;
75810;SDS011;64449;50.016;19.954;2023-05-24T00:43:40;8.60;;;5.80;;
75810;SDS011;64449;50.016;19.954;2023-05-24T00:48:54;9.00;;;5.70;;
75810;SDS011;64449;50.016;19.954;2023-05-24T00:51:21;8.80;;;6.30;;
75810;SDS011;64449;50.016;19.954;2023-05-24T00:53:47;9.40;;;5.90;;
75810;SDS011;64449;50.016;19.954;2023-05-24T00:56:13;9.00;;;6.20;;
75810;SDS011;64449;50.016;19.954;2023-05-24T00:58:40;10.30;;;5.90;;
75810;SDS011;64449;50.016;19.954;2023-05-24T01:01:05;8.70;;;6.20;;
75810;SDS011;64449;50.016;19.954;2023-05-24T01:03:32;8.20;;;5.60;;
75810;SDS011;64449;50.016;19.954;2023-05-24T01:05:58;8.50;;;6.20;;
75810;SDS011;64449;50.016;19.954;2023-05-24T01:08:31;7.10;;;5.30;;
75810;SDS011;64449;50.016;19.954;2023-05-24T01:16:14;11.10;;;6.30;;
75810;SDS011;64449;50.016;19.954;2023-05-24T01:18:45;11.20;;;6.10;;
75810;SDS011;64449;50.016;19.954;2023-05-24T01:21:23;8.90;;;6.30;;
75810;SDS011;64449;50.016;19.954;2023-05-24T01:26:45;7.40;;;5.70;;
75810;SDS011;64449;50.016;19.954;2023-05-24T01:29:15;8.20;;;5.60;;
75810;SDS011;64449;50.016;19.954;2023-05-24T01:31:41;8.80;;;5.70;;
75810;SDS011;64449;50.016;19.954;2023-05-24T01:34:07;9.40;;;6.60;;
75810;SDS011;64449;50.016;19.954;2023-05-24T01:36:32;9.10;;;5.80;;
75810;SDS011;64449;50.016;19.954;2023-05-24T01:38:57;10.00;;;6.60;;
75810;SDS011;64449;50.016;19.954;2023-05-24T01:41:31;7.00;;;5.60;;
75810;SDS011;64449;50.016;19.954;2023-05-24T01:46:48;10.10;;;6.30;;
75810;SDS011;64449;50.016;19.954;2023-05-24T01:49:25;10.50;;;6.70;;
75810;SDS011;64449;50.016;19.954;2023-05-24T01:52:06;8.70;;;6.00;;
75810;SDS011;64449;50.016;19.954;2023-05-24T01:54:36;11.00;;;7.00;;
75810;SDS011;64449;50.016;19.954;2023-05-24T01:57:06;9.50;;;6.60;;
75810;SDS011;64449;50.016;19.954;2023-05-24T01:59:33;9.00;;;6.40;;
75810;SDS011;64449;50.016;19.954;2023-05-24T02:01:59;10.20;;;6.90;;
75810;SDS011;64449;50.016;19.954;2023-05-24T02:04:25;8.00;;;6.00;;
75810;SDS011;64449;50.016;19.954;2023-05-24T02:06:51;8.60;;;6.00;;
75810;SDS011;64449;50.016;19.954;2023-05-24T02:09:16;9.90;;;6.60;;
75810;SDS011;64449;50.016;19.954;2023-05-24T02:11:41;10.90;;;6.30;;
75810;SDS011;64449;50.016;19.954;2023-05-24T02:14:07;9.70;;;7.10;;
75810;SDS011;64449;50.016;19.954;2023-05-24T02:16:32;11.10;;;7.20;;
75810;SDS011;64449;50.016;19.954;2023-05-24T02:18:58;11.50;;;7.10;;
75810;SDS011;64449;50.016;19.954;2023-05-24T02:21:23;9.70;;;7.70;;
75810;SDS011;64449;50.016;19.954;2023-05-24T02:23:49;11.50;;;7.40;;
75810;SDS011;64449;50.016;19.954;2023-05-24T02:26:15;10.70;;;7.40;;
75810;SDS011;64449;50.016;19.954;2023-05-24T02:28:42;13.00;;;7.70;;
75810;SDS011;64449;50.016;19.954;2023-05-24T02:31:08;10.80;;;7.40;;
75810;SDS011;64449;50.016;19.954;2023-05-24T02:33:34;11.40;;;7.30;;
75810;SDS011;64449;50.016;19.954;2023-05-24T02:36:00;11.80;;;8.40;;
75810;SDS011;64449;50.016;19.954;2023-05-24T02:38:26;12.50;;;9.20;;
75810;SDS011;64449;50.016;19.954;2023-05-24T02:40:51;14.10;;;8.10;;
75810;SDS011;64449;50.016;19.954;2023-05-24T02:43:16;13.10;;;8.60;;
75810;SDS011;64449;50.016;19.954;2023-05-24T02:45:42;15.60;;;9.90;;
75810;SDS011;64449;50.016;19.954;2023-05-24T02:48:08;12.00;;;8.60;;
75810;SDS011;64449;50.016;19.954;2023-05-24T02:50:33;13.50;;;9.10;;
75810;SDS011;64449;50.016;19.954;2023-05-24T02:52:58;12.50;;;9.10;;
75810;SDS011;64449;50.016;19.954;2023-05-24T02:55:24;15.00;;;9.80;;
75810;SDS011;64449;50.016;19.954;2023-05-24T02:57:50;16.60;;;10.00;;
75810;SDS011;64449;50.016;19.954;2023-05-24T03:00:17;20.10;;;10.60;;
75810;SDS011;64449;50.016;19.954;2023-05-24T03:02:43;18.20;;;11.50;;
75810;SDS011;64449;50.016;19.954;2023-05-24T03:05:11;15.30;;;10.80;;
75810;SDS011;64449;50.016;19.954;2023-05-24T03:07:37;17.70;;;11.30;;
75810;SDS011;64449;50.016;19.954;2023-05-24T03:10:02;18.50;;;11.60;;
75810;SDS011;64449;50.016;19.954;2023-05-24T03:12:28;17.50;;;11.80;;
75810;SDS011;64449;50.016;19.954;2023-05-24T03:14:53;15.50;;;11.10;;
75810;SDS011;64449;50.016;19.954;2023-05-24T03:17:19;15.60;;;11.40;;
75810;SDS011;64449;50.016;19.954;2023-05-24T03:19:44;15.70;;;10.60;;
75810;SDS011;64449;50.016;19.954;2023-05-24T03:22:10;16.50;;;11.70;;
75810;SDS011;64449;50.016;19.954;2023-05-24T03:24:35;18.70;;;11.20;;
75810;SDS011;64449;50.016;19.954;2023-05-24T03:27:03;16.80;;;10.70;;
75810;SDS011;64449;50.016;19.954;2023-05-24T03:29:30;22.00;;;13.60;;
75810;SDS011;64449;50.016;19.954;2023-05-24T03:31:55;18.20;;;12.30;;
75810;SDS011;64449;50.016;19.954;2023-05-24T03:34:20;17.80;;;12.20;;
75810;SDS011;64449;50.016;19.954;2023-05-24T03:36:46;19.90;;;12.00;;
75810;SDS011;64449;50.016;19.954;2023-05-24T03:39:11;18.50;;;13.50;;
75810;SDS011;64449;50.016;19.954;2023-05-24T03:41:36;20.10;;;14.60;;
75810;SDS011;64449;50.016;19.954;2023-05-24T03:44:02;21.10;;;14.20;;
75810;SDS011;64449;50.016;19.954;2023-05-24T03:46:27;26.10;;;16.50;;
75810;SDS011;64449;50.016;19.954;2023-05-24T03:48:52;25.70;;;17.30;;
75810;SDS011;64449;50.016;19.954;2023-05-24T03:51:18;24.90;;;16.30;;
75810;SDS011;64449;50.016;19.954;2023-05-24T03:53:44;25.20;;;16.00;;
75810;SDS011;64449;50.016;19.954;2023-05-24T03:56:09;23.70;;;15.50;;
75810;SDS011;64449;50.016;19.954;2023-05-24T03:58:35;20.90;;;15.10;;
75810;SDS011;64449;50.016;19.954;2023-05-24T04:01:00;24.90;;;17.80;;
75810;SDS011;64449;50.016;19.954;2023-05-24T04:03:25;28.70;;;18.00;;
75810;SDS011;64449;50.016;19.954;2023-05-24T04:05:52;26.80;;;18.50;;
75810;SDS011;64449;50.016;19.954;2023-05-24T04:08:18;28.10;;;18.30;;
75810;SDS011;64449;50.016;19.954;2023-05-24T04:10:44;27.30;;;18.00;;
75810;SDS011;64449;50.016;19.954;2023-05-24T04:13:09;26.80;;;17.20;;
75810;SDS011;64449;50.016;19.954;2023-05-24T04:15:35;27.80;;;17.70;;
75810;SDS011;64449;50.016;19.954;2023-05-24T04:18:01;25.70;;;17.60;;
75810;SDS011;64449;50.016;19.954;2023-05-24T04:20:27;25.10;;;17.50;;
75810;SDS011;64449;50.016;19.954;2023-05-24T04:22:53;25.40;;;16.20;;
75810;SDS011;64449;50.016;19.954;2023-05-24T04:25:20;25.20;;;16.50;;
75810;SDS011;64449;50.016;19.954;2023-05-24T04:27:46;25.80;;;18.20;;
75810;SDS011;64449;50.016;19.954;2023-05-24T04:30:13;29.40;;;17.60;;
75810;SDS011;64449;50.016;19.954;2023-05-24T04:32:42;26.90;;;19.80;;
75810;SDS011;64449;50.016;19.954;2023-05-24T04:35:11;25.00;;;17.90;;
75810;SDS011;64449;50.016;19.954;2023-05-24T04:37:36;25.30;;;18.20;;
75810;SDS011;64449;50.016;19.954;2023-05-24T04:40:02;26.00;;;18.00;;
75810;SDS011;64449;50.016;19.954;2023-05-24T04:42:29;27.30;;;18.20;;
75810;SDS011;64449;50.016;19.954;2023-05-24T04:44:55;27.40;;;19.00;;
75810;SDS011;64449;50.016;19.954;2023-05-24T04:47:22;26.60;;;19.10;;
75810;SDS011;64449;50.016;19.954;2023-05-24T04:49:47;24.90;;;18.00;;
75810;SDS011;64449;50.016;19.954;2023-05-24T04:52:13;27.60;;;18.80;;
75810;SDS011;64449;50.016;19.954;2023-05-24T04:54:38;26.10;;;18.60;;
75810;SDS011;64449;50.016;19.954;2023-05-24T04:57:04;26.70;;;19.80;;
75810;SDS011;64449;50.016;19.954;2023-05-24T04:59:29;30.20;;;18.80;;
75810;SDS011;64449;50.016;19.954;2023-05-24T05:01:55;29.70;;;19.70;;
75810;SDS011;64449;50.016;19.954;2023-05-24T05:04:20;26.80;;;18.60;;
75810;SDS011;64449;50.016;19.954;2023-05-24T05:06:45;31.20;;;18.70;;
75810;SDS011;64449;50.016;19.954;2023-05-24T05:09:12;31.50;;;20.90;;
75810;SDS011;64449;50.016;19.954;2023-05-24T05:11:39;30.00;;;19.80;;
75810;SDS011;64449;50.016;19.954;2023-05-24T05:14:04;31.90;;;21.10;;
75810;SDS011;64449;50.016;19.954;2023-05-24T05:16:33;32.60;;;20.30;;
75810;SDS011;64449;50.016;19.954;2023-05-24T05:19:00;30.80;;;19.30;;
75810;SDS011;64449;50.016;19.954;2023-05-24T05:21:26;31.30;;;21.20;;
75810;SDS011;64449;50.016;19.954;2023-05-24T05:23:51;31.80;;;20.00;;
75810;SDS011;64449;50.016;19.954;2023-05-24T05:26:16;29.60;;;19.90;;
75810;SDS011;64449;50.016;19.954;2023-05-24T05:28:42;28.60;;;20.70;;
75810;SDS011;64449;50.016;19.954;2023-05-24T05:31:07;31.30;;;19.30;;
75810;SDS011;64449;50.016;19.954;2023-05-24T05:33:33;30.00;;;18.40;;
75810;SDS011;64449;50.016;19.954;2023-05-24T05:35:58;27.30;;;17.90;;
75810;SDS011;64449;50.016;19.954;2023-05-24T05:38:24;25.70;;;17.80;;
75810;SDS011;64449;50.016;19.954;2023-05-24T05:40:49;22.00;;;13.90;;
75810;SDS011;64449;50.016;19.954;2023-05-24T05:43:15;21.70;;;14.70;;
75810;SDS011;64449;50.016;19.954;2023-05-24T05:45:40;23.50;;;14.50;;
75810;SDS011;64449;50.016;19.954;2023-05-24T05:48:06;22.40;;;14.60;;
75810;SDS011;64449;50.016;19.954;2023-05-24T05:50:31;22.30;;;15.60;;
75810;SDS011;64449;50.016;19.954;2023-05-24T05:52:57;22.60;;;14.50;;
75810;SDS011;64449;50.016;19.954;2023-05-24T05:55:22;22.70;;;14.30;;
75810;SDS011;64449;50.016;19.954;2023-05-24T05:57:48;23.50;;;15.90;;
75810;SDS011;64449;50.016;19.954;2023-05-24T06:00:14;21.50;;;14.90;;
75810;SDS011;64449;50.016;19.954;2023-05-24T06:02:40;22.50;;;15.30;;
75810;SDS011;64449;50.016;19.954;2023-05-24T06:05:05;20.90;;;13.40;;
75810;SDS011;64449;50.016;19.954;2023-05-24T06:07:31;19.30;;;13.20;;
75810;SDS011;64449;50.016;19.954;2023-05-24T06:09:57;19.90;;;12.80;;
75810;SDS011;64449;50.016;19.954;2023-05-24T06:12:23;28.30;;;14.50;;
75810;SDS011;64449;50.016;19.954;2023-05-24T06:14:48;20.20;;;13.60;;
75810;SDS011;64449;50.016;19.954;2023-05-24T06:17:15;19.80;;;14.00;;
75810;SDS011;64449;50.016;19.954;2023-05-24T06:19:40;18.00;;;12.40;;
75810;SDS011;64449;50.016;19.954;2023-05-24T06:22:07;20.10;;;12.80;;
75810;SDS011;64449;50.016;19.954;2023-05-24T06:24:33;16.70;;;12.00;;
75810;SDS011;64449;50.016;19.954;2023-05-24T06:26:59;17.50;;;12.70;;
75810;SDS011;64449;50.016;19.954;2023-05-24T06:29:24;20.20;;;13.50;;
75810;SDS011;64449;50.016;19.954;2023-05-24T06:31:50;19.00;;;13.80;;
75810;SDS011;64449;50.016;19.954;2023-05-24T06:34:16;18.80;;;13.60;;
75810;SDS011;64449;50.016;19.954;2023-05-24T06:36:45;21.90;;;13.50;;
75810;SDS011;64449;50.016;19.954;2023-05-24T06:39:12;17.90;;;13.00;;
75810;SDS011;64449;50.016;19.954;2023-05-24T06:41:38;16.30;;;11.40;;
75810;SDS011;64449;50.016;19.954;2023-05-24T06:44:03;18.10;;;11.90;;
75810;SDS011;64449;50.016;19.954;2023-05-24T06:46:29;19.70;;;13.00;;
75810;SDS011;64449;50.016;19.954;2023-05-24T06:48:55;17.40;;;12.30;;
75810;SDS011;64449;50.016;19.954;2023-05-24T06:51:20;18.40;;;13.00;;
75810;SDS011;64449;50.016;19.954;2023-05-24T06:53:46;17.40;;;13.00;;
75810;SDS011;64449;50.016;19.954;2023-05-24T06:56:12;18.00;;;12.40;;
75810;SDS011;64449;50.016;19.954;2023-05-24T06:58:37;20.10;;;13.90;;
75810;SDS011;64449;50.016;19.954;2023-05-24T07:01:03;18.80;;;13.70;;
75810;SDS011;64449;50.016;19.954;2023-05-24T07:03:29;24.30;;;14.50;;
75810;SDS011;64449;50.016;19.954;2023-05-24T07:05:56;20.10;;;14.10;;
75810;SDS011;64449;50.016;19.954;2023-05-24T07:08:22;18.30;;;13.40;;
75810;SDS011;64449;50.016;19.954;2023-05-24T07:10:48;17.20;;;12.00;;
75810;SDS011;64449;50.016;19.954;2023-05-24T07:13:14;21.50;;;14.90;;
75810;SDS011;64449;50.016;19.954;2023-05-24T07:15:42;19.90;;;13.60;;
75810;SDS011;64449;50.016;19.954;2023-05-24T07:18:08;19.90;;;13.20;;
75810;SDS011;64449;50.016;19.954;2023-05-24T07:20:33;22.90;;;15.10;;
75810;SDS011;64449;50.016;19.954;2023-05-24T07:22:59;21.90;;;14.50;;
75810;SDS011;64449;50.016;19.954;2023-05-24T07:25:25;20.10;;;14.50;;
75810;SDS011;64449;50.016;19.954;2023-05-24T07:27:51;25.60;;;15.00;;
75810;SDS011;64449;50.016;19.954;2023-05-24T07:30:16;21.20;;;15.00;;
75810;SDS011;64449;50.016;19.954;2023-05-24T07:32:42;23.10;;;15.30;;
75810;SDS011;64449;50.016;19.954;2023-05-24T07:35:09;20.10;;;14.90;;
75810;SDS011;64449;50.016;19.954;2023-05-24T07:37:37;20.40;;;14.10;;
75810;SDS011;64449;50.016;19.954;2023-05-24T07:40:03;24.90;;;15.60;;
75810;SDS011;64449;50.016;19.954;2023-05-24T07:42:29;22.00;;;13.90;;
75810;SDS011;64449;50.016;19.954;2023-05-24T07:44:55;22.70;;;16.20;;
75810;SDS011;64449;50.016;19.954;2023-05-24T07:47:21;23.70;;;16.20;;
75810;SDS011;64449;50.016;19.954;2023-05-24T07:49:46;21.90;;;16.40;;
75810;SDS011;64449;50.016;19.954;2023-05-24T07:52:12;21.60;;;14.90;;
75810;SDS011;64449;50.016;19.954;2023-05-24T07:54:38;24.30;;;15.90;;
75810;SDS011;64449;50.016;19.954;2023-05-24T07:57:04;24.90;;;15.80;;
75810;SDS011;64449;50.016;19.954;2023-05-24T07:59:29;19.00;;;13.80;;
75810;SDS011;64449;50.016;19.954;2023-05-24T08:01:55;20.70;;;15.10;;
75810;SDS011;64449;50.016;19.954;2023-05-24T08:04:25;23.00;;;15.20;;
75810;SDS011;64449;50.016;19.954;2023-05-24T08:06:51;24.10;;;16.20;;
75810;SDS011;64449;50.016;19.954;2023-05-24T08:09:16;22.20;;;15.60;;
75810;SDS011;64449;50.016;19.954;2023-05-24T08:11:42;26.20;;;16.80;;
75810;SDS011;64449;50.016;19.954;2023-05-24T08:14:07;25.20;;;17.20;;
75810;SDS011;64449;50.016;19.954;2023-05-24T08:16:32;32.80;;;20.60;;
75810;SDS011;64449;50.016;19.954;2023-05-24T08:18:58;26.50;;;15.50;;
75810;SDS011;64449;50.016;19.954;2023-05-24T08:21:23;24.00;;;16.20;;
75810;SDS011;64449;50.016;19.954;2023-05-24T08:23:49;22.00;;;15.00;;
75810;SDS011;64449;50.016;19.954;2023-05-24T08:26:15;21.60;;;14.70;;
75810;SDS011;64449;50.016;19.954;2023-05-24T08:28:43;23.10;;;14.20;;
75810;SDS011;64449;50.016;19.954;2023-05-24T08:31:08;19.80;;;13.30;;
75810;SDS011;64449;50.016;19.954;2023-05-24T08:33:34;20.50;;;12.80;;
75810;SDS011;64449;50.016;19.954;2023-05-24T08:35:59;21.20;;;13.40;;
75810;SDS011;64449;50.016;19.954;2023-05-24T08:38:25;22.00;;;12.70;;
75810;SDS011;64449;50.016;19.954;2023-05-24T08:40:50;18.30;;;12.30;;
75810;SDS011;64449;50.016;19.954;2023-05-24T08:43:15;19.20;;;11.60;;
75810;SDS011;64449;50.016;19.954;2023-05-24T08:45:41;17.90;;;10.80;;
75810;SDS011;64449;50.016;19.954;2023-05-24T08:48:08;17.50;;;11.40;;
75810;SDS011;64449;50.016;19.954;2023-05-24T08:50:34;14.50;;;10.10;;
75810;SDS011;64449;50.016;19.954;2023-05-24T08:53:00;20.70;;;11.00;;
75810;SDS011;64449;50.016;19.954;2023-05-24T08:55:29;15.90;;;10.00;;
75810;SDS011;64449;50.016;19.954;2023-05-24T08:57:55;13.00;;;8.90;;
75810;SDS011;64449;50.016;19.954;2023-05-24T09:00:21;14.40;;;9.30;;
75810;SDS011;64449;50.016;19.954;2023-05-24T09:02:47;15.40;;;8.70;;
75810;SDS011;64449;50.016;19.954;2023-05-24T09:05:14;11.90;;;7.70;;
75810;SDS011;64449;50.016;19.954;2023-05-24T09:07:42;14.30;;;8.50;;
75810;SDS011;64449;50.016;19.954;2023-05-24T09:10:09;12.80;;;7.40;;
75810;SDS011;64449;50.016;19.954;2023-05-24T09:12:35;11.40;;;7.60;;
75810;SDS011;64449;50.016;19.954;2023-05-24T09:15:02;17.30;;;8.90;;
75810;SDS011;64449;50.016;19.954;2023-05-24T09:17:36;13.10;;;8.60;;
75810;SDS011;64449;50.016;19.954;2023-05-24T09:20:02;13.60;;;7.10;;
75810;SDS011;64449;50.016;19.954;2023-05-24T09:22:30;11.10;;;7.70;;
75810;SDS011;64449;50.016;19.954;2023-05-24T09:25:00;19.10;;;8.30;;
75810;SDS011;64449;50.016;19.954;2023-05-24T09:27:27;14.50;;;8.50;;
75810;SDS011;64449;50.016;19.954;2023-05-24T09:29:54;13.10;;;8.00;;
75810;SDS011;64449;50.016;19.954;2023-05-24T09:32:20;13.70;;;7.20;;
75810;SDS011;64449;50.016;19.954;2023-05-24T09:34:48;15.60;;;8.30;;
75810;SDS011;64449;50.016;19.954;2023-05-24T09:37:16;13.50;;;8.30;;
75810;SDS011;64449;50.016;19.954;2023-05-24T09:39:44;14.40;;;7.90;;
75810;SDS011;64449;50.016;19.954;2023-05-24T09:42:14;13.80;;;8.20;;
75810;SDS011;64449;50.016;19.954;2023-05-24T09:44:42;17.40;;;8.60;;
75810;SDS011;64449;50.016;19.954;2023-05-24T09:47:08;16.60;;;9.50;;
75810;SDS011;64449;50.016;19.954;2023-05-24T09:49:36;18.80;;;10.70;;
75810;SDS011;64449;50.016;19.954;2023-05-24T09:52:02;17.60;;;9.10;;
75810;SDS011;64449;50.016;19.954;2023-05-24T09:54:27;26.30;;;11.20;;
75810;SDS011;64449;50.016;19.954;2023-05-24T09:56:53;16.80;;;10.30;;
75810;SDS011;64449;50.016;19.954;2023-05-24T09:59:18;19.10;;;10.90;;
75810;SDS011;64449;50.016;19.954;2023-05-24T10:01:44;23.60;;;10.70;;
75810;SDS011;64449;50.016;19.954;2023-05-24T10:04:10;20.60;;;10.80;;
75810;SDS011;64449;50.016;19.954;2023-05-24T10:06:36;19.90;;;10.70;;
75810;SDS011;64449;50.016;19.954;2023-05-24T10:09:03;21.70;;;12.40;;
75810;SDS011;64449;50.016;19.954;2023-05-24T10:11:33;21.60;;;12.50;;
75810;SDS011;64449;50.016;19.954;2023-05-24T10:14:02;18.90;;;10.80;;
75810;SDS011;64449;50.016;19.954;2023-05-24T10:16:29;24.40;;;12.20;;
75810;SDS011;64449;50.016;19.954;2023-05-24T10:18:54;24.70;;;11.80;;
75810;SDS011;64449;50.016;19.954;2023-05-24T10:21:22;19.70;;;10.30;;
75810;SDS011;64449;50.016;19.954;2023-05-24T10:23:50;21.20;;;11.50;;
75810;SDS011;64449;50.016;19.954;2023-05-24T10:26:22;23.40;;;10.70;;
75810;SDS011;64449;50.016;19.954;2023-05-24T10:28:51;15.60;;;9.80;;
75810;SDS011;64449;50.016;19.954;2023-05-24T10:31:24;19.50;;;10.60;;
75810;SDS011;64449;50.016;19.954;2023-05-24T10:33:54;20.20;;;11.30;;
75810;SDS011;64449;50.016;19.954;2023-05-24T10:36:22;21.50;;;11.00;;
75810;SDS011;64449;50.016;19.954;2023-05-24T10:38:50;19.60;;;10.00;;
75810;SDS011;64449;50.016;19.954;2023-05-24T10:41:16;17.70;;;10.70;;
75810;SDS011;64449;50.016;19.954;2023-05-24T10:43:44;19.70;;;10.90;;
75810;SDS011;64449;50.016;19.954;2023-05-24T10:46:11;21.20;;;11.90;;
75810;SDS011;64449;50.016;19.954;2023-05-24T10:48:39;17.60;;;9.40;;
75810;SDS011;64449;50.016;19.954;2023-05-24T10:54:11;22.60;;;12.30;;
75810;SDS011;64449;50.016;19.954;2023-05-24T10:56:45;20.50;;;11.40;;
75810;SDS011;64449;50.016;19.954;2023-05-24T10:59:31;21.40;;;12.60;;
75810;SDS011;64449;50.016;19.954;2023-05-24T11:02:01;23.40;;;11.80;;
75810;SDS011;64449;50.016;19.954;2023-05-24T11:04:32;22.10;;;11.60;;
75810;SDS011;64449;50.016;19.954;2023-05-24T11:07:01;22.20;;;12.10;;
75810;SDS011;64449;50.016;19.954;2023-05-24T11:09:29;21.50;;;12.50;;
75810;SDS011;64449;50.016;19.954;2023-05-24T11:11:59;27.20;;;12.90;;
75810;SDS011;64449;50.016;19.954;2023-05-24T11:14:29;18.40;;;10.40;;
75810;SDS011;64449;50.016;19.954;2023-05-24T11:16:56;19.30;;;11.70;;
75810;SDS011;64449;50.016;19.954;2023-05-24T11:19:31;17.00;;;10.80;;
75810;SDS011;64449;50.016;19.954;2023-05-24T11:21:58;14.40;;;8.40;;
75810;SDS011;64449;50.016;19.954;2023-05-24T11:24:25;14.30;;;9.20;;
75810;SDS011;64449;50.016;19.954;2023-05-24T11:26:52;14.10;;;9.00;;
75810;SDS011;64449;50.016;19.954;2023-05-24T11:29:18;17.50;;;11.20;;
75810;SDS011;64449;50.016;19.954;2023-05-24T11:34:16;15.40;;;10.20;;
75810;SDS011;64449;50.016;19.954;2023-05-24T11:36:43;16.70;;;10.20;;
75810;SDS011;64449;50.016;19.954;2023-05-24T11:39:10;15.50;;;11.10;;
75810;SDS011;64449;50.016;19.954;2023-05-24T11:41:38;16.50;;;11.10;;
75810;SDS011;64449;50.016;19.954;2023-05-24T11:44:06;15.80;;;10.20;;
75810;SDS011;64449;50.016;19.954;2023-05-24T11:46:33;16.70;;;10.90;;
75810;SDS011;64449;50.016;19.954;2023-05-24T11:48:59;17.40;;;12.30;;
75810;SDS011;64449;50.016;19.954;2023-05-24T11:51:34;15.50;;;10.50;;
75810;SDS011;64449;50.016;19.954;2023-05-24T11:54:00;17.00;;;11.60;;
75810;SDS011;64449;50.016;19.954;2023-05-24T11:56:26;13.10;;;8.80;;
75810;SDS011;64449;50.016;19.954;2023-05-24T11:58:58;18.30;;;11.10;;
75810;SDS011;64449;50.016;19.954;2023-05-24T12:01:26;19.00;;;11.70;;
75810;SDS011;64449;50.016;19.954;2023-05-24T12:03:52;20.40;;;11.80;;
75810;SDS011;64449;50.016;19.954;2023-05-24T12:06:19;16.60;;;10.30;;
75810;SDS011;64449;50.016;19.954;2023-05-24T12:08:46;11.50;;;7.80;;
75810;SDS011;64449;50.016;19.954;2023-05-24T12:11:12;15.00;;;10.30;;
75810;SDS011;64449;50.016;19.954;2023-05-24T12:13:38;15.20;;;10.30;;
75810;SDS011;64449;50.016;19.954;2023-05-24T12:16:04;17.20;;;10.40;;
75810;SDS011;64449;50.016;19.954;2023-05-24T12:18:30;18.20;;;11.00;;
75810;SDS011;64449;50.016;19.954;2023-05-24T12:20:56;16.90;;;9.60;;
75810;SDS011;64449;50.016;19.954;2023-05-24T12:23:22;15.20;;;10.70;;
75810;SDS011;64449;50.016;19.954;2023-05-24T12:25:49;15.90;;;10.70;;
75810;SDS011;64449;50.016;19.954;2023-05-24T12:28:17;15.60;;;10.00;;
75810;SDS011;64449;50.016;19.954;2023-05-24T12:30:47;18.30;;;11.70;;
75810;SDS011;64449;50.016;19.954;2023-05-24T12:33:14;15.70;;;10.10;;
75810;SDS011;64449;50.016;19.954;2023-05-24T12:35:40;19.20;;;11.40;;
75810;SDS011;64449;50.016;19.954;2023-05-24T12:38:09;14.70;;;9.60;;
75810;SDS011;64449;50.016;19.954;2023-05-24T12:40:35;16.90;;;10.40;;
75810;SDS011;64449;50.016;19.954;2023-05-24T12:43:01;14.80;;;10.00;;
75810;SDS011;64449;50.016;19.954;2023-05-24T12:45:28;18.50;;;11.00;;
75810;SDS011;64449;50.016;19.954;2023-05-24T12:47:55;22.80;;;10.50;;
75810;SDS011;64449;50.016;19.954;2023-05-24T12:50:23;14.10;;;10.50;;
75810;SDS011;64449;50.016;19.954;2023-05-24T12:52:50;16.70;;;11.10;;
75810;SDS011;64449;50.016;19.954;2023-05-24T12:55:24;18.60;;;10.10;;
75810;SDS011;64449;50.016;19.954;2023-05-24T12:57:51;15.20;;;9.10;;
75810;SDS011;64449;50.016;19.954;2023-05-24T13:00:19;16.90;;;11.30;;
75810;SDS011;64449;50.016;19.954;2023-05-24T13:02:45;14.30;;;10.40;;
75810;SDS011;64449;50.016;19.954;2023-05-24T13:05:11;15.00;;;10.20;;
75810;SDS011;64449;50.016;19.954;2023-05-24T13:07:37;14.50;;;9.80;;
75810;SDS011;64449;50.016;19.954;2023-05-24T13:10:07;15.20;;;9.20;;
75810;SDS011;64449;50.016;19.954;2023-05-24T13:12:32;13.00;;;9.90;;
75810;SDS011;64449;50.016;19.954;2023-05-24T13:14:58;15.40;;;10.70;;
75810;SDS011;64449;50.016;19.954;2023-05-24T13:17:23;15.30;;;9.70;;
75810;SDS011;64449;50.016;19.954;2023-05-24T13:19:50;15.80;;;10.80;;
75810;SDS011;64449;50.016;19.954;2023-05-24T13:22:15;18.60;;;12.20;;
75810;SDS011;64449;50.016;19.954;2023-05-24T13:24:41;21.30;;;13.70;;
75810;SDS011;64449;50.016;19.954;2023-05-24T13:27:07;18.60;;;12.70;;
75810;SDS011;64449;50.016;19.954;2023-05-24T13:29:32;14.20;;;10.70;;
75810;SDS011;64449;50.016;19.954;2023-05-24T13:31:58;14.10;;;10.30;;
75810;SDS011;64449;50.016;19.954;2023-05-24T13:34:23;15.00;;;10.20;;
75810;SDS011;64449;50.016;19.954;2023-05-24T13:36:50;16.00;;;9.90;;
75810;SDS011;64449;50.016;19.954;2023-05-24T13:39:16;18.40;;;10.40;;
75810;SDS011;64449;50.016;19.954;2023-05-24T13:41:43;15.80;;;9.60;;
75810;SDS011;64449;50.016;19.954;2023-05-24T13:44:09;14.10;;;10.40;;
75810;SDS011;64449;50.016;19.954;2023-05-24T13:46:36;18.00;;;11.70;;
75810;SDS011;64449;50.016;19.954;2023-05-24T13:49:02;12.70;;;9.20;;
75810;SDS011;64449;50.016;19.954;2023-05-24T13:51:28;13.90;;;8.90;;
75810;SDS011;64449;50.016;19.954;2023-05-24T13:53:54;13.40;;;10.00;;
75810;SDS011;64449;50.016;19.954;2023-05-24T13:56:20;11.20;;;9.30;;
75810;SDS011;64449;50.016;19.954;2023-05-24T13:58:46;14.00;;;9.00;;
75810;SDS011;64449;50.016;19.954;2023-05-24T14:01:12;13.00;;;8.90;;
75810;SDS011;64449;50.016;19.954;2023-05-24T14:03:37;11.30;;;8.70;;
75810;SDS011;64449;50.016;19.954;2023-05-24T14:06:05;15.50;;;9.30;;
75810;SDS011;64449;50.016;19.954;2023-05-24T14:08:32;11.80;;;8.90;;
75810;SDS011;64449;50.016;19.954;2023-05-24T14:10:57;15.90;;;10.30;;
75810;SDS011;64449;50.016;19.954;2023-05-24T14:13:23;15.70;;;10.00;;
75810;SDS011;64449;50.016;19.954;2023-05-24T14:15:49;14.60;;;9.60;;
75810;SDS011;64449;50.016;19.954;2023-05-24T14:18:14;14.70;;;9.30;;
75810;SDS011;64449;50.016;19.954;2023-05-24T14:20:40;13.60;;;9.20;;
75810;SDS011;64449;50.016;19.954;2023-05-24T14:23:06;12.80;;;9.00;;
75810;SDS011;64449;50.016;19.954;2023-05-24T14:25:32;12.80;;;9.20;;
75810;SDS011;64449;50.016;19.954;2023-05-24T14:27:58;12.10;;;9.30;;
75810;SDS011;64449;50.016;19.954;2023-05-24T14:30:24;14.00;;;9.10;;